Time;durP1;ratioP1;P1;durP2;ratioP2;P2;SDS_P1;SDS_P2;PMS_P1;PMS_P2;Temp;Humidity;BMP_temperature;BMP_pressure;BME280_temperature;BME280_humidity;BME280_pressure;Samples;Min_cycle;Max_cycle;Signal;HPM_P1;HPM_P2
2023/12/03 00:02:07;;;;;;;1554.82;999.90;;;27.20;99.90;;;;;;5093970;28;20019;-70
2023/12/03 00:04:34;;;;;;;1549.97;999.90;;;27.20;99.90;;;;;;5093988;28;20020;-70
2023/12/03 00:07:00;;;;;;;1545.03;999.90;;;27.20;99.90;;;;;;5093867;28;20031;-68
2023/12/03 00:09:27;;;;;;;1564.53;999.90;;;27.20;99.90;;;;;;5094025;28;20181;-68
2023/12/03 00:11:53;;;;;;;1560.10;999.90;;;27.20;99.90;;;;;;5092910;28;20525;-68
2023/12/03 00:14:20;;;;;;;1560.70;999.90;;;27.20;99.90;;;;;;5093657;28;20043;-69
2023/12/03 00:16:46;;;;;;;1558.00;999.90;;;27.20;99.90;;;;;;5094194;28;20024;-68
2023/12/03 00:19:13;;;;;;;1560.90;999.90;;;27.20;99.90;;;;;;5094315;28;20028;-69
2023/12/03 00:21:40;;;;;;;1560.57;999.90;;;27.20;99.90;;;;;;5094096;28;20051;-68
2023/12/03 00:24:06;;;;;;;1566.05;999.90;;;27.10;99.90;;;;;;5093952;28;20066;-69
2023/12/03 00:26:33;;;;;;;1571.28;999.90;;;27.20;99.90;;;;;;5094117;28;20107;-69
2023/12/03 00:28:59;;;;;;;1562.75;999.90;;;27.10;99.90;;;;;;5093734;28;20020;-69
2023/12/03 00:31:26;;;;;;;1581.32;999.90;;;27.00;99.90;;;;;;5094059;28;20030;-68
2023/12/03 00:33:52;;;;;;;1571.60;999.90;;;27.10;99.90;;;;;;5094042;28;20488;-68
2023/12/03 00:36:19;;;;;;;1589.80;999.90;;;27.00;99.90;;;;;;5093701;28;20106;-68
2023/12/03 00:38:46;;;;;;;1576.97;999.90;;;27.00;99.90;;;;;;5093863;28;20043;-69
2023/12/03 00:41:12;;;;;;;1594.53;999.90;;;27.10;99.90;;;;;;5094281;28;20027;-69
2023/12/03 00:43:39;;;;;;;1561.25;999.90;;;27.20;99.90;;;;;;5094014;28;20387;-68
2023/12/03 00:46:05;;;;;;;1582.03;999.90;;;27.20;99.90;;;;;;5093458;28;20618;-69
2023/12/03 00:48:32;;;;;;;1603.03;999.90;;;27.20;99.90;;;;;;5093978;28;20061;-68
2023/12/03 00:50:58;;;;;;;1582.60;999.90;;;27.30;99.90;;;;;;5094248;28;20042;-68
2023/12/03 00:53:25;;;;;;;1557.97;999.90;;;27.40;99.90;;;;;;5093283;28;20474;-69
2023/12/03 00:55:53;;;;;;;1566.85;999.90;;;27.50;99.90;;;;;;5093386;28;20035;-67
2023/12/03 00:58:20;;;;;;;1566.60;999.90;;;27.50;99.90;;;;;;5093551;28;20020;-68
2023/12/03 01:00:47;;;;;;;1561.57;999.90;;;27.60;99.90;;;;;;5093278;28;20465;-67
2023/12/03 01:03:13;;;;;;;1568.03;999.90;;;27.60;99.90;;;;;;5093596;28;20017;-68
2023/12/03 01:05:40;;;;;;;1576.95;999.90;;;27.70;99.90;;;;;;5093482;28;20012;-67
2023/12/03 01:08:07;;;;;;;1562.53;999.90;;;27.70;99.90;;;;;;5093181;28;20021;-68
2023/12/03 01:10:33;;;;;;;1557.07;999.90;;;27.80;99.90;;;;;;5093635;28;20020;-68
2023/12/03 01:13:00;;;;;;;1558.18;999.90;;;27.90;99.90;;;;;;5093601;28;20059;-69
2023/12/03 01:15:26;;;;;;;1563.10;999.90;;;28.00;99.90;;;;;;5093820;28;20467;-68
2023/12/03 01:17:53;;;;;;;1534.03;999.90;;;28.00;99.90;;;;;;5094027;28;20016;-70
2023/12/03 01:20:20;;;;;;;1578.30;999.90;;;28.10;99.90;;;;;;5093853;28;20020;-69
2023/12/03 01:22:46;;;;;;;1565.07;999.90;;;28.10;99.90;;;;;;5093510;28;20074;-70
2023/12/03 01:25:13;;;;;;;1560.32;999.90;;;28.20;99.90;;;;;;5097899;28;20024;-69
2023/12/03 01:27:39;;;;;;;1565.80;999.90;;;28.20;99.90;;;;;;5097866;28;20101;-69
2023/12/03 01:30:06;;;;;;;1577.13;999.90;;;28.30;99.90;;;;;;5097880;28;20111;-69
2023/12/03 01:32:33;;;;;;;1565.28;999.90;;;28.30;99.90;;;;;;5100257;28;20099;-68
2023/12/03 01:34:59;;;;;;;1574.72;999.90;;;28.30;99.90;;;;;;5091489;28;20039;-71
2023/12/03 01:37:26;;;;;;;1551.90;999.90;;;28.40;99.90;;;;;;5079885;28;20060;-70
2023/12/03 01:39:53;;;;;;;1558.82;999.90;;;28.40;99.90;;;;;;5076783;28;20387;-68
2023/12/03 01:42:20;;;;;;;1549.75;999.90;;;28.40;99.90;;;;;;5085076;28;20103;-68
2023/12/03 01:44:47;;;;;;;1557.03;999.90;;;28.50;99.90;;;;;;5088321;28;20024;-68
2023/12/03 01:47:14;;;;;;;1541.32;999.90;;;28.60;99.90;;;;;;5090565;28;20016;-69
2023/12/03 01:49:41;;;;;;;1554.78;999.90;;;28.70;99.90;;;;;;5076488;28;20486;-70
2023/12/03 01:52:07;;;;;;;1559.18;999.90;;;28.70;99.90;;;;;;5076548;28;20039;-69
2023/12/03 01:54:36;;;;;;;1555.25;999.90;;;28.80;99.90;;;;;;5076433;28;20025;-70
2023/12/03 01:57:03;;;;;;;1568.60;999.90;;;28.80;99.90;;;;;;5076255;28;20025;-70
2023/12/03 01:59:31;;;;;;;1560.57;999.90;;;28.90;99.90;;;;;;5075833;28;20028;-69
2023/12/03 02:01:58;;;;;;;1558.18;999.90;;;28.90;99.90;;;;;;5076139;28;20470;-69
2023/12/03 02:04:24;;;;;;;1559.60;999.90;;;28.90;99.90;;;;;;5076277;28;20103;-70
2023/12/03 02:06:51;;;;;;;1565.82;999.90;;;28.80;99.90;;;;;;5075850;28;20052;-70
2023/12/03 02:09:19;;;;;;;1564.07;999.90;;;28.80;99.90;;;;;;5076091;28;20074;-69
2023/12/03 02:11:46;;;;;;;1551.18;999.90;;;28.90;99.90;;;;;;5075867;28;20032;-69
2023/12/03 02:14:13;;;;;;;1534.07;999.90;;;28.90;99.90;;;;;;5075860;28;20094;-68
2023/12/03 02:16:47;;;;;;;1547.15;999.90;;;28.80;99.90;;;;;;5075746;28;20028;-68
2023/12/03 02:19:15;;;;;;;1574.95;999.90;;;28.90;99.90;;;;;;5075820;28;20025;-69
2023/12/03 02:21:41;;;;;;;1569.78;999.90;;;28.90;99.90;;;;;;5075370;28;20036;-67
2023/12/03 02:24:08;;;;;;;1561.13;999.90;;;28.90;99.90;;;;;;5075668;28;20020;-67
2023/12/03 02:26:35;;;;;;;1570.43;999.90;;;29.00;99.90;;;;;;5075691;28;20013;-67
2023/12/03 02:29:02;;;;;;;1571.50;999.90;;;29.00;99.90;;;;;;5075256;28;20029;-67
2023/12/03 02:31:30;;;;;;;1537.57;999.90;;;29.00;99.90;;;;;;5075673;28;20021;-67
2023/12/03 02:34:15;;;;;;;1570.70;999.90;;;29.00;99.90;;;;;;5075410;28;20032;-67
2023/12/03 02:36:41;;;;;;;1537.68;999.90;;;29.10;99.90;;;;;;5074679;28;20021;-68
2023/12/03 02:39:08;;;;;;;1569.90;999.90;;;29.20;99.90;;;;;;5093098;28;20035;-68
2023/12/03 02:41:34;;;;;;;1540.40;999.90;;;29.20;99.90;;;;;;5115737;28;20011;-68
2023/12/03 02:44:01;;;;;;;1543.35;999.90;;;29.20;99.90;;;;;;5095620;28;20463;-67
2023/12/03 02:46:28;;;;;;;1519.20;999.90;;;29.30;99.90;;;;;;5095340;28;20052;-68
2023/12/03 02:48:54;;;;;;;1530.60;999.90;;;29.30;99.90;;;;;;5101198;28;20028;-67
2023/12/03 02:51:21;;;;;;;1536.03;999.90;;;29.40;99.90;;;;;;5106630;28;20168;-67
2023/12/03 02:53:48;;;;;;;1557.10;999.90;;;29.40;99.90;;;;;;5106344;28;20047;-69
2023/12/03 02:56:16;;;;;;;1564.07;999.90;;;29.50;99.90;;;;;;5104510;28;20024;-68
2023/12/03 02:58:42;;;;;;;1555.18;999.90;;;29.50;99.90;;;;;;5106120;28;20037;-70
2023/12/03 03:01:09;;;;;;;1552.15;999.90;;;29.50;99.90;;;;;;5106515;28;20081;-70
2023/12/03 03:03:36;;;;;;;1561.85;999.90;;;29.60;99.90;;;;;;5104887;28;20019;-70
2023/12/03 03:06:02;;;;;;;1559.78;999.90;;;29.70;99.90;;;;;;5106051;28;20161;-70
2023/12/03 03:08:29;;;;;;;1552.53;999.90;;;29.80;99.90;;;;;;5106311;28;20012;-69
2023/12/03 03:10:55;;;;;;;1555.13;999.90;;;29.80;99.90;;;;;;5107598;22;20114;-69
2023/12/03 03:13:22;;;;;;;1555.80;999.90;;;29.80;99.90;;;;;;5065139;28;20486;-68
2023/12/03 03:15:48;;;;;;;1555.40;999.90;;;29.90;99.90;;;;;;5062509;28;20032;-74
2023/12/03 03:18:15;;;;;;;1544.63;999.90;;;30.10;99.90;;;;;;5044882;28;20028;-72
2023/12/03 03:20:42;;;;;;;1560.18;999.90;;;30.20;99.90;;;;;;5045576;28;20040;-73
2023/12/03 03:23:08;;;;;;;1558.65;999.90;;;30.20;99.90;;;;;;5044993;28;20025;-69
2023/12/03 03:25:35;;;;;;;1566.75;999.90;;;30.20;99.90;;;;;;5037752;28;20026;-71
2023/12/03 03:28:01;;;;;;;1564.40;999.90;;;30.30;99.90;;;;;;5034282;28;20021;-73
2023/12/03 03:30:28;;;;;;;1543.70;999.90;;;30.40;99.90;;;;;;5034459;28;20079;-71
2023/12/03 03:32:54;;;;;;;1565.10;999.90;;;30.50;99.90;;;;;;5034309;28;20029;-70
2023/12/03 03:35:21;;;;;;;1575.63;999.90;;;30.60;99.90;;;;;;5034168;28;20026;-72
2023/12/03 03:37:48;;;;;;;1564.75;999.90;;;30.60;99.90;;;;;;5041989;28;20027;-71
2023/12/03 03:40:14;;;;;;;1548.78;999.90;;;30.70;99.90;;;;;;5041037;28;20061;-70
2023/12/03 03:42:41;;;;;;;1577.85;999.90;;;30.70;99.90;;;;;;5042235;28;20014;-71
2023/12/03 03:45:08;;;;;;;1566.72;999.90;;;30.80;99.90;;;;;;5044568;28;20029;-70
2023/12/03 03:47:36;;;;;;;1567.95;999.90;;;30.80;99.90;;;;;;5043041;28;20105;-70
2023/12/03 03:50:04;;;;;;;1556.90;999.90;;;30.90;99.90;;;;;;5042696;28;20033;-71
2023/12/03 03:52:31;;;;;;;1562.97;999.90;;;31.10;99.90;;;;;;5044521;28;20023;-69
2023/12/03 03:54:57;;;;;;;1574.15;999.90;;;31.20;99.90;;;;;;5043682;28;20064;-70
2023/12/03 03:57:24;;;;;;;1572.95;999.90;;;31.10;99.90;;;;;;5042741;28;20486;-68
2023/12/03 03:59:51;;;;;;;1562.25;999.90;;;31.10;99.90;;;;;;5043512;28;20047;-69
2023/12/03 04:02:17;;;;;;;1573.47;999.90;;;31.10;99.90;;;;;;5043937;28;20030;-67
2023/12/03 04:04:44;;;;;;;1571.32;999.90;;;31.10;99.90;;;;;;5049660;28;20025;-68
2023/12/03 04:07:11;;;;;;;1571.90;999.90;;;31.10;99.90;;;;;;5041462;28;20030;-69
2023/12/03 04:09:38;;;;;;;1552.72;999.90;;;31.20;99.90;;;;;;5035636;28;20033;-70
2023/12/03 04:12:04;;;;;;;1576.32;999.90;;;31.30;99.90;;;;;;5035571;28;20228;-68
2023/12/03 04:14:31;;;;;;;1552.45;999.90;;;31.40;99.90;;;;;;5035608;28;20021;-68
2023/12/03 04:16:58;;;;;;;1566.88;999.90;;;31.50;99.90;;;;;;5035490;28;20053;-70
2023/12/03 04:19:25;;;;;;;1572.22;999.90;;;31.60;99.90;;;;;;5035705;28;20029;-71
2023/12/03 04:21:51;;;;;;;1562.05;999.90;;;31.50;99.90;;;;;;5035506;28;20025;-65
2023/12/03 04:24:18;;;;;;;1572.43;999.90;;;31.60;99.90;;;;;;5035518;28;20021;-70
2023/12/03 04:26:44;;;;;;;1564.53;999.90;;;31.70;99.90;;;;;;5035816;28;20104;-68
2023/12/03 04:29:12;;;;;;;1566.35;999.90;;;31.80;99.90;;;;;;5035373;28;20025;-69
2023/12/03 04:31:39;;;;;;;1556.53;999.90;;;31.90;99.90;;;;;;5035420;28;20079;-70
2023/12/03 04:34:05;;;;;;;1554.85;999.90;;;31.90;99.90;;;;;;5035706;28;20051;-70
2023/12/03 04:36:35;;;;;;;1564.65;999.90;;;31.90;99.90;;;;;;5035209;28;20025;-72
2023/12/03 04:39:01;;;;;;;1564.10;999.90;;;31.90;99.90;;;;;;5039396;28;20163;-69
2023/12/03 04:41:37;;;;;;;1551.28;999.90;;;31.80;99.90;;;;;;5043465;28;20067;-70
2023/12/03 04:44:04;;;;;;;1568.50;999.90;;;31.80;99.90;;;;;;5043665;28;20045;-70
2023/12/03 04:46:31;;;;;;;1553.55;999.90;;;31.90;99.90;;;;;;5042277;28;20431;-69
2023/12/03 04:48:57;;;;;;;1556.93;999.90;;;31.90;99.90;;;;;;5041970;28;20112;-70
2023/12/03 04:51:24;;;;;;;1573.00;999.90;;;31.80;99.90;;;;;;5043526;28;20095;-69
2023/12/03 04:53:51;;;;;;;1576.05;999.90;;;31.90;99.90;;;;;;5038369;28;20035;-70
2023/12/03 04:56:17;;;;;;;1564.90;999.90;;;31.80;99.90;;;;;;5034175;28;20072;-68
2023/12/03 04:58:44;;;;;;;1565.53;999.90;;;31.80;99.90;;;;;;5044076;28;20032;-68
2023/12/03 05:01:12;;;;;;;1557.75;999.90;;;31.90;99.90;;;;;;5048032;28;20013;-68
2023/12/03 05:03:38;;;;;;;1561.28;999.90;;;31.90;99.90;;;;;;5046663;28;20091;-67
2023/12/03 05:06:05;;;;;;;1567.78;999.90;;;31.90;99.90;;;;;;5033383;28;20029;-68
2023/12/03 05:08:32;;;;;;;1577.13;999.90;;;32.00;99.90;;;;;;5037277;28;20060;-71
2023/12/03 05:11:02;;;;;;;1570.68;999.90;;;32.00;99.90;;;;;;5037011;28;20053;-69
2023/12/03 05:13:29;;;;;;;1552.72;999.90;;;32.00;99.90;;;;;;5024738;28;20030;-69
2023/12/03 05:15:55;;;;;;;1552.35;999.90;;;32.00;99.90;;;;;;5017231;28;20033;-70
2023/12/03 05:18:22;;;;;;;1573.88;999.90;;;31.90;99.90;;;;;;5016993;28;20029;-70
2023/12/03 05:20:49;;;;;;;1565.40;999.90;;;31.90;99.90;;;;;;5017145;28;20034;-70
2023/12/03 05:23:16;;;;;;;1544.07;999.90;;;32.00;99.90;;;;;;5027576;28;20029;-70
2023/12/03 05:25:42;;;;;;;1566.97;999.90;;;32.10;99.90;;;;;;5036815;28;20473;-69
2023/12/03 05:28:09;;;;;;;1548.35;999.90;;;32.10;99.90;;;;;;5037021;28;20096;-71
2023/12/03 05:30:35;;;;;;;1570.07;999.90;;;32.10;99.90;;;;;;5036754;28;20044;-69
2023/12/03 05:33:02;;;;;;;1575.13;999.90;;;32.30;99.90;;;;;;5017951;28;20113;-70
2023/12/03 05:35:28;;;;;;;1555.00;999.90;;;32.40;99.90;;;;;;5016696;28;20492;-70
2023/12/03 05:37:55;;;;;;;1576.90;999.90;;;32.50;99.90;;;;;;5016740;28;20030;-69
2023/12/03 05:40:21;;;;;;;1555.38;999.90;;;32.70;99.90;;;;;;5019262;28;20021;-69
2023/12/03 05:42:48;;;;;;;1580.80;999.90;;;32.80;99.90;;;;;;5026626;28;20032;-70
2023/12/03 05:45:15;;;;;;;1571.97;999.90;;;32.80;99.90;;;;;;5046755;28;20021;-69
2023/12/03 05:47:42;;;;;;;1561.57;999.90;;;32.80;99.90;;;;;;5045089;28;20017;-69
2023/12/03 05:50:08;;;;;;;1562.60;999.90;;;32.90;99.90;;;;;;5046309;28;20060;-70
2023/12/03 05:52:35;;;;;;;1568.68;999.90;;;32.90;99.90;;;;;;5046570;28;20380;-70
2023/12/03 05:55:01;;;;;;;1544.63;999.90;;;32.80;99.90;;;;;;5045076;28;20094;-69
2023/12/03 05:57:28;;;;;;;1563.32;999.90;;;32.80;99.90;;;;;;5046027;28;20028;-69
2023/12/03 05:59:55;;;;;;;1539.00;999.90;;;32.80;99.90;;;;;;5046330;28;20029;-70
2023/12/03 06:02:21;;;;;;;1540.95;999.90;;;32.90;99.90;;;;;;5044744;28;20028;-70
2023/12/03 06:04:48;;;;;;;1541.53;999.90;;;32.90;99.90;;;;;;5045688;28;20025;-70
2023/12/03 06:07:14;;;;;;;1559.07;999.90;;;32.90;99.90;;;;;;5046065;28;20104;-70
2023/12/03 06:09:41;;;;;;;1560.50;999.90;;;33.00;99.90;;;;;;5044482;28;20023;-70
2023/12/03 06:12:07;;;;;;;1565.63;999.90;;;33.00;99.90;;;;;;5045765;28;20069;-70
2023/12/03 06:14:34;;;;;;;1557.90;999.90;;;33.00;99.90;;;;;;5045947;28;20026;-71
2023/12/03 06:17:01;;;;;;;1565.68;999.90;;;33.00;99.90;;;;;;5044405;28;20017;-70
2023/12/03 06:19:27;;;;;;;1563.10;999.90;;;33.00;99.90;;;;;;5045755;28;20028;-69
2023/12/03 06:21:54;;;;;;;1559.53;999.90;;;33.00;99.90;;;;;;5045933;28;20018;-67
2023/12/03 06:24:21;;;;;;;1548.53;999.90;;;33.00;99.90;;;;;;5043915;28;20025;-67
2023/12/03 06:26:47;;;;;;;1535.35;999.90;;;33.00;99.90;;;;;;5045645;28;20017;-65
2023/12/03 06:29:14;;;;;;;1530.82;999.90;;;33.10;99.90;;;;;;5045741;28;20034;-67
2023/12/03 06:31:40;;;;;;;1537.47;999.90;;;33.30;99.90;;;;;;5043932;28;20112;-66
2023/12/03 06:34:07;;;;;;;1554.32;999.90;;;33.30;99.90;;;;;;5045694;28;20017;-66
2023/12/03 06:36:33;;;;;;;1559.40;999.90;;;33.30;99.90;;;;;;5045448;28;20075;-67
2023/12/03 06:39:00;;;;;;;1549.72;999.90;;;33.50;99.90;;;;;;5044053;28;20141;-70
2023/12/03 06:41:27;;;;;;;1544.82;999.90;;;33.50;99.90;;;;;;5045829;28;20048;-70
2023/12/03 06:43:53;;;;;;;1561.93;999.90;;;33.50;99.90;;;;;;5045120;28;20010;-69
2023/12/03 06:46:20;;;;;;;1546.88;999.90;;;33.60;99.90;;;;;;5052411;28;20032;-69
2023/12/03 06:48:46;;;;;;;1536.93;999.90;;;33.50;99.90;;;;;;5055434;28;20384;-69
2023/12/03 06:51:13;;;;;;;1535.53;999.90;;;33.60;99.90;;;;;;5055050;28;20028;-70
2023/12/03 06:53:40;;;;;;;1527.75;999.90;;;33.60;99.90;;;;;;5055227;28;20029;-69
2023/12/03 06:56:10;;;;;;;1539.18;999.90;;;33.60;99.90;;;;;;5055578;28;20371;-69
2023/12/03 06:58:37;;;;;;;1558.22;999.90;;;33.60;99.90;;;;;;5054672;28;20029;-68
2023/12/03 07:01:03;;;;;;;1555.93;999.90;;;33.70;99.90;;;;;;5057513;28;20024;-70
2023/12/03 07:03:30;;;;;;;1568.43;999.90;;;33.60;99.90;;;;;;5057869;28;20029;-70
2023/12/03 07:05:59;;;;;;;1579.30;999.90;;;33.60;99.90;;;;;;5055335;28;20087;-68
2023/12/03 07:08:26;;;;;;;1567.43;999.90;;;33.60;99.90;;;;;;5055141;28;20025;-67
2023/12/03 07:10:52;;;;;;;1571.53;999.90;;;33.60;99.90;;;;;;5055035;28;20427;-67
2023/12/03 07:13:19;;;;;;;1557.25;999.90;;;33.60;99.90;;;;;;5054938;28;20531;-68
2023/12/03 07:15:45;;;;;;;1566.53;999.90;;;33.70;99.90;;;;;;5055325;28;20104;-67
2023/12/03 07:18:12;;;;;;;1564.13;999.90;;;33.70;99.90;;;;;;5054582;28;20017;-69
2023/12/03 07:20:38;;;;;;;1566.40;999.90;;;33.60;99.90;;;;;;5052408;28;20087;-68
2023/12/03 07:23:05;;;;;;;1554.72;999.90;;;33.70;99.90;;;;;;5053725;28;20043;-68
2023/12/03 07:25:31;;;;;;;1553.03;999.90;;;33.80;99.90;;;;;;5054164;28;20383;-67
2023/12/03 07:27:58;;;;;;;1549.75;999.90;;;33.80;99.90;;;;;;5054057;28;20387;-68
2023/12/03 07:30:25;;;;;;;1556.57;999.90;;;33.70;99.90;;;;;;5054286;28;20029;-67
2023/12/03 07:32:52;;;;;;;1527.35;999.90;;;33.80;99.90;;;;;;5053947;28;20104;-68
2023/12/03 07:35:19;;;;;;;1532.40;999.90;;;33.80;99.90;;;;;;5053886;28;20031;-68
2023/12/03 07:37:45;;;;;;;1518.03;999.90;;;33.80;99.90;;;;;;5054030;28;20506;-68
2023/12/03 07:40:12;;;;;;;1526.78;999.90;;;33.90;99.90;;;;;;5053839;28;20044;-68
2023/12/03 07:42:39;;;;;;;1542.78;999.90;;;34.00;99.90;;;;;;5053758;28;20475;-68
2023/12/03 07:45:06;;;;;;;1551.80;999.90;;;34.00;99.90;;;;;;5053906;28;20035;-67
2023/12/03 07:47:33;;;;;;;1553.78;999.90;;;33.90;99.90;;;;;;5053833;28;20415;-69
2023/12/03 07:50:00;;;;;;;1560.68;999.90;;;33.90;99.90;;;;;;5053390;28;20029;-69
2023/12/03 07:52:26;;;;;;;1562.47;999.90;;;34.00;99.90;;;;;;5053865;28;20038;-70
2023/12/03 07:54:53;;;;;;;1569.07;999.90;;;34.00;99.90;;;;;;5053770;28;20017;-71
2023/12/03 07:57:19;;;;;;;1553.35;999.90;;;34.00;99.90;;;;;;5053490;28;20039;-72
2023/12/03 07:59:46;;;;;;;1580.38;999.90;;;34.00;99.90;;;;;;5053526;28;20104;-71
2023/12/03 08:02:12;;;;;;;1572.68;999.90;;;34.00;99.90;;;;;;5053672;28;20075;-70
2023/12/03 08:04:39;;;;;;;1576.07;999.90;;;34.00;99.90;;;;;;5053429;28;20074;-70
2023/12/03 08:07:05;;;;;;;1576.15;999.90;;;34.00;99.90;;;;;;5053589;28;20410;-70
2023/12/03 08:09:32;;;;;;;1571.28;999.90;;;34.00;99.90;;;;;;5053444;28;20041;-70
2023/12/03 08:11:59;;;;;;;1564.18;999.90;;;34.00;99.90;;;;;;5053216;28;20051;-68
2023/12/03 08:14:25;;;;;;;1553.93;999.90;;;33.90;99.90;;;;;;5053673;28;20455;-70
2023/12/03 08:16:52;;;;;;;1558.82;999.90;;;33.90;99.90;;;;;;5053232;28;20494;-70
2023/12/03 08:19:18;;;;;;;1565.47;999.90;;;34.00;99.90;;;;;;5053227;28;20614;-70
2023/12/03 08:21:47;;;;;;;1573.50;999.90;;;33.90;99.90;;;;;;5053162;28;20021;-71
2023/12/03 08:24:14;;;;;;;1585.97;999.90;;;33.90;99.90;;;;;;5053360;28;20021;-72
2023/12/03 08:26:40;;;;;;;1577.15;999.90;;;33.90;99.90;;;;;;5053246;28;20021;-71
2023/12/03 08:29:07;;;;;;;1569.30;999.90;;;33.90;99.90;;;;;;5052959;28;20499;-71
2023/12/03 08:31:34;;;;;;;1573.70;999.90;;;33.90;99.90;;;;;;5053099;28;20468;-73
2023/12/03 08:34:01;;;;;;;1566.00;999.90;;;33.80;99.90;;;;;;5052313;28;20029;-72
2023/12/03 08:36:31;;;;;;;1562.30;999.90;;;33.80;99.90;;;;;;5052849;28;20104;-71
2023/12/03 08:38:57;;;;;;;1565.05;999.90;;;33.90;99.90;;;;;;5053016;28;20451;-72
2023/12/03 08:41:24;;;;;;;1547.97;999.90;;;33.80;99.90;;;;;;5053155;28;20429;-71
2023/12/03 08:43:50;;;;;;;1570.25;999.90;;;33.70;99.90;;;;;;5053256;28;20128;-71
2023/12/03 08:46:17;;;;;;;1593.18;999.90;;;33.70;99.90;;;;;;5053092;28;20071;-71
2023/12/03 08:48:44;;;;;;;1574.93;999.90;;;33.70;99.90;;;;;;5053032;28;20533;-72
2023/12/03 08:51:11;;;;;;;1571.80;999.90;;;33.60;99.90;;;;;;5045867;28;20056;-71
2023/12/03 08:53:38;;;;;;;1564.53;999.90;;;33.60;99.90;;;;;;5039758;28;20026;-67
2023/12/03 08:56:05;;;;;;;1568.55;999.90;;;33.60;99.90;;;;;;5030669;28;20032;-69
2023/12/03 08:58:31;;;;;;;1574.60;999.90;;;33.60;99.90;;;;;;5032882;28;20029;-68
2023/12/03 09:00:58;;;;;;;1565.50;999.90;;;33.60;99.90;;;;;;5032039;28;20152;-68
2023/12/03 09:03:24;;;;;;;1568.80;999.90;;;33.60;99.90;;;;;;5033392;28;20376;-68
2023/12/03 09:05:51;;;;;;;1554.22;999.90;;;33.50;99.90;;;;;;5031262;28;20017;-68
2023/12/03 09:08:17;;;;;;;1556.63;999.90;;;33.50;99.90;;;;;;5033057;28;20361;-67
2023/12/03 09:10:44;;;;;;;1572.57;999.90;;;33.50;99.90;;;;;;5030246;28;20046;-65
2023/12/03 09:13:10;;;;;;;1562.50;999.90;;;33.50;99.90;;;;;;5030920;28;20022;-65
2023/12/03 09:15:37;;;;;;;1565.18;999.90;;;33.50;99.90;;;;;;5032218;28;20104;-65
2023/12/03 09:18:04;;;;;;;1569.47;999.90;;;33.50;99.90;;;;;;5030735;28;20464;-67
2023/12/03 09:20:30;;;;;;;1570.18;999.90;;;33.50;99.90;;;;;;5048041;28;20025;-68
2023/12/03 09:22:57;;;;;;;1579.00;999.90;;;33.50;99.90;;;;;;5051479;28;20075;-69
2023/12/03 09:25:23;;;;;;;1570.72;999.90;;;33.50;99.90;;;;;;5033106;28;20017;-67
2023/12/03 09:27:50;;;;;;;1569.72;999.90;;;33.40;99.90;;;;;;5032742;28;20018;-71
2023/12/03 09:30:17;;;;;;;1574.53;999.90;;;33.40;99.90;;;;;;5032516;28;20029;-70
2023/12/03 09:32:44;;;;;;;1653.28;999.90;;;33.40;99.90;;;;;;5037181;28;20076;-71
2023/12/03 09:35:10;;;;;;;1608.95;999.90;;;33.40;99.90;;;;;;5037888;28;20029;-71
2023/12/03 09:37:37;;;;;;;1673.35;999.90;;;33.40;99.90;;;;;;5037003;28;20024;-71
2023/12/03 09:40:04;;;;;;;1650.03;999.90;;;33.40;99.90;;;;;;5040463;28;20017;-71
2023/12/03 09:42:35;;;;;;;1687.45;999.90;;;33.30;99.90;;;;;;5043250;28;20020;-71
2023/12/03 09:45:04;;;;;;;1637.10;999.90;;;33.30;99.90;;;;;;5041504;28;20520;-70
2023/12/03 09:47:45;;;;;;;1632.18;999.90;;;33.30;99.90;;;;;;5045298;28;20498;-71
2023/12/03 09:50:13;;;;;;;1830.28;999.90;;;33.20;99.90;;;;;;5016661;28;20113;-71
2023/12/03 09:52:42;;;;;;;1999.90;999.90;;;33.20;99.90;;;;;;5022417;28;20116;-71
2023/12/03 09:55:09;;;;;;;1999.90;999.90;;;33.20;99.90;;;;;;5038742;28;20025;-68
2023/12/03 09:57:38;;;;;;;1914.22;999.90;;;33.20;99.90;;;;;;5046780;28;20341;-70
2023/12/03 10:00:05;;;;;;;1887.82;999.90;;;33.20;99.90;;;;;;5046893;28;20017;-70
2023/12/03 10:02:34;;;;;;;1800.45;999.90;;;33.10;99.90;;;;;;5043683;28;20017;-69
2023/12/03 10:05:01;;;;;;;1706.32;999.90;;;33.10;99.90;;;;;;5036004;28;20388;-68
2023/12/03 10:07:29;;;;;;;1723.75;999.90;;;33.10;99.90;;;;;;5036038;28;20100;-68
2023/12/03 10:09:59;;;;;;;1587.22;999.90;;;33.10;99.90;;;;;;5035511;28;20029;-68
2023/12/03 10:12:29;;;;;;;1557.68;999.90;;;33.00;99.90;;;;;;5045356;28;20057;-68
2023/12/03 10:14:58;;;;;;;1583.72;999.90;;;33.00;99.90;;;;;;5036255;28;20507;-67
2023/12/03 10:17:25;;;;;;;1570.28;999.90;;;33.00;99.90;;;;;;5033899;28;20116;-66
2023/12/03 10:19:52;;;;;;;1556.97;999.90;;;32.70;99.90;;;;;;5034140;28;20484;-68
2023/12/03 10:22:34;;;;;;;1560.18;999.90;;;32.70;99.90;;;;;;5035003;28;20499;-66
2023/12/03 10:25:02;;;;;;;1589.82;999.90;;;32.50;99.90;;;;;;5015346;28;20105;-68
2023/12/03 10:27:29;;;;;;;1614.95;999.90;;;32.40;99.90;;;;;;5015755;28;20033;-67
2023/12/03 10:29:56;;;;;;;1596.78;999.90;;;32.30;99.90;;;;;;5022552;28;20033;-68
2023/12/03 10:32:22;;;;;;;1552.53;999.90;;;32.20;99.90;;;;;;5040863;28;20033;-68
2023/12/03 10:34:50;;;;;;;1576.18;999.90;;;32.20;99.90;;;;;;5035447;28;20022;-68
2023/12/03 10:37:17;;;;;;;1555.30;999.90;;;32.20;99.90;;;;;;5037926;28;20131;-68
2023/12/03 10:39:44;;;;;;;1578.63;999.90;;;32.00;99.90;;;;;;5035581;28;20032;-68
2023/12/03 10:42:10;;;;;;;1538.22;999.90;;;31.80;99.90;;;;;;5035431;28;20025;-67
2023/12/03 10:44:38;;;;;;;1544.50;999.90;;;31.60;99.90;;;;;;5035247;28;20021;-67
2023/12/03 10:47:05;;;;;;;1540.80;999.90;;;31.60;99.90;;;;;;5037814;28;20028;-68
2023/12/03 10:49:35;;;;;;;1558.43;999.90;;;31.50;99.90;;;;;;5044816;28;20468;-68
2023/12/03 10:52:03;;;;;;;1574.68;999.90;;;31.50;99.90;;;;;;5043531;28;20032;-68
2023/12/03 10:54:30;;;;;;;1581.10;999.90;;;31.40;99.90;;;;;;5045048;28;20501;-68
2023/12/03 10:56:57;;;;;;;1602.25;999.90;;;31.30;99.90;;;;;;5044492;28;20021;-68
2023/12/03 10:59:27;;;;;;;1577.25;999.90;;;31.20;99.90;;;;;;5043498;28;20023;-68
2023/12/03 11:01:57;;;;;;;1524.97;999.90;;;31.10;99.90;;;;;;5044570;28;20024;-69
2023/12/03 11:04:55;;;;;;;1568.95;999.90;;;31.10;99.90;;;;;;5045587;28;20097;-68
2023/12/03 11:07:22;;;;;;;1591.10;999.90;;;31.10;99.90;;;;;;5037729;28;20104;-68
2023/12/03 11:09:49;;;;;;;1605.43;999.90;;;31.00;99.90;;;;;;5053184;28;20029;-68
2023/12/03 11:12:18;;;;;;;1580.40;999.90;;;30.80;99.90;;;;;;5054114;28;20503;-68
2023/12/03 11:14:45;;;;;;;1601.70;999.90;;;30.70;99.90;;;;;;5054243;28;20108;-65
2023/12/03 11:17:34;;;;;;;1568.70;999.90;;;30.70;99.90;;;;;;5054662;28;20032;-66
2023/12/03 11:20:26;;;;;;;1560.78;999.90;;;30.70;99.90;;;;;;5054618;28;20029;-66
2023/12/03 11:23:05;;;;;;;1541.13;999.90;;;30.70;99.90;;;;;;5053231;28;20044;-66
2023/12/03 11:25:35;;;;;;;1541.93;999.90;;;30.70;99.90;;;;;;5054425;28;20025;-66
2023/12/03 11:28:01;;;;;;;1523.22;999.90;;;30.60;99.90;;;;;;5053973;28;20078;-66
2023/12/03 11:30:40;;;;;;;1579.90;999.90;;;30.50;99.90;;;;;;5054153;28;20033;-66
2023/12/03 11:33:11;;;;;;;1594.47;999.90;;;30.50;99.90;;;;;;5054233;28;20025;-64
2023/12/03 11:35:40;;;;;;;1603.38;999.90;;;30.40;99.90;;;;;;5053521;28;20053;-64
2023/12/03 11:38:27;;;;;;;1594.13;999.90;;;30.40;99.90;;;;;;5052089;28;20407;-63
2023/12/03 11:40:53;;;;;;;1597.68;999.90;;;30.30;99.90;;;;;;5050652;28;20079;-64
2023/12/03 11:43:25;;;;;;;1595.50;999.90;;;30.30;99.90;;;;;;5053439;28;20036;-66
2023/12/03 11:45:52;;;;;;;1589.00;999.90;;;30.30;99.90;;;;;;5053307;28;20021;-66
2023/12/03 11:48:19;;;;;;;1610.35;999.90;;;30.30;99.90;;;;;;5053407;28;20037;-65
2023/12/03 11:50:48;;;;;;;1607.72;999.90;;;30.20;99.90;;;;;;5053506;28;20111;-65
2023/12/03 11:53:16;;;;;;;1614.82;999.90;;;30.20;99.90;;;;;;5053679;28;20104;-66
2023/12/03 11:55:48;;;;;;;1617.88;999.90;;;30.20;99.90;;;;;;5053923;28;20021;-66
2023/12/03 11:58:15;;;;;;;1608.00;999.90;;;30.10;99.90;;;;;;5053617;28;20025;-66
2023/12/03 12:00:45;;;;;;;1619.55;999.90;;;29.90;99.90;;;;;;5053804;28;20035;-66